• Join FlightAware (Why Join?)
  • Login
  • US Flag 
02:26PM EDT


 

Airport Tracker/Info


-or-


 

Live Flight TrackerFlight Track Log ✈ SWA134 ✈ 08-May-2013 ✈ KBWI - KPHX

Flight Track Log - Related Links

Times and Time Zones

All times are in EDT time to prevent confusion due to time zone crossing. See the SWA134 flight status page for this flight to view local times or setup timezone preferences in your user account.

Time Position Orientation Groundspeed Altitude Reporting Facility
EDT Latitude Longitude Course Direction KTS MPH feet Rate Location/Type
09:45PM 39.1833 -76.7500 252° West 198 228 2,000  Level Potomac TRACON
09:47PM 39.1983 -76.8744 279° West 241 277 6,000 2,760 Climbing Washington Center
09:48PM 39.2119 -76.9739 280° West 266 306 9,100 2,700 Climbing Washington Center
09:49PM 39.2106 -77.0836 269° West 295 339 11,400 2,340 Climbing Washington Center
09:50PM 39.1736 -77.1928 246° West 326 375 13,900 2,700 Climbing Washington Center
09:51PM 38.9951 -77.3362 252° West  Level FlightAware Approximate
09:51PM 39.0894 -77.2603 212° Southwest 334 384 16,800  Level Washington Center
09:52PM 39.0047 -77.3467 218° Southwest 353 406 19,100 2,280 Climbing Washington Center
09:53PM 38.9756 -77.4847 255° West 377 434 21,400 2,340 Climbing Washington Center
09:54PM 38.9481 -77.6469 258° West 397 457 23,900 1,980 Climbing Washington Center
09:55PM 38.9225 -77.7928 257° West 428 493 25,500 1,680 Climbing Washington Center
09:56PM 38.8986 -77.9494 259° West 440 506 27,300 1,680 Climbing Washington Center
09:57PM 38.8706 -78.1058 257° West 447 514 28,900 1,740 Climbing Washington Center
09:58PM 38.8525 -78.2625 262° West 447 514 30,800 1,740 Climbing Washington Center
09:59PM 38.8508 -78.4225 269° West 447 514 32,400 1,500 Climbing Washington Center
10:00PM 38.8492 -78.5797 269° West 441 507 33,900 1,200 Climbing Washington Center
10:01PM 38.8494 -78.7369 270° West 441 507 34,800 540 Climbing Washington Center
10:02PM 38.8514 -78.8917 271° West 441 507 35,000 60 Climbing Washington Center
10:03PM 38.8511 -79.0517 270° West 441 507 35,000  Level Washington Center
10:04PM 38.8528 -79.2089 271° West 441 507 35,000  Level Washington Center
10:05PM 38.8522 -79.3636 270° West 441 507 35,000  Level Washington Center
10:06PM 38.8533 -79.5183 271° West 441 507 35,000  Level Washington Center
10:07PM 38.8564 -79.6783 271° West 447 514 35,000  Level Washington Center
10:08PM 38.8578 -79.8197 271° West 442 509 35,000 300 Level Washington Center
10:09PM 38.8567 -79.9692 269° West 436 502 35,700 300 Climbing Washington Center
10:11PM 38.8328 -80.2306 263° West 434 499 36,000 60 Climbing Indianapolis Center
10:12PM 38.7789 -80.4033 248° West 435 501 36,000  Level Indianapolis Center
10:13PM 38.7364 -80.5442 249° West 424 488 36,000  Level Indianapolis Center
10:14PM 38.6922 -80.6864 248° West 428 493 36,000  Level Indianapolis Center
10:15PM 38.6486 -80.8272 248° West 426 490 36,000  Level Indianapolis Center
10:16PM 38.6044 -80.9689 248° West 427 491 36,000  Level Indianapolis Center
10:17PM 38.5603 -81.1103 248° West 427 491 36,000  Level Indianapolis Center
10:18PM 38.5147 -81.2533 248° West 429 494 36,000  Level Indianapolis Center
10:19PM 38.4692 -81.3967 248° West 430 495 36,000  Level Indianapolis Center
10:20PM 38.4239 -81.5408 248° West 430 495 36,000  Level Indianapolis Center
10:21PM 38.3775 -81.6847 248° West 434 499 36,000  Level Indianapolis Center
10:22PM 38.3344 -81.8256 249° West 426 490 36,000  Level Indianapolis Center
10:23PM 38.2950 -81.9675 251° West 425 489 36,000  Level Indianapolis Center
10:24PM 38.2542 -82.1092 250° West 425 489 36,000  Level Indianapolis Center
10:25PM 38.2144 -82.2539 251° West 430 495 36,000  Level Indianapolis Center
10:26PM 38.1731 -82.3978 250° West 433 498 36,000  Level Indianapolis Center
10:27PM 38.1300 -82.5478 250° West 437 503 36,000  Level Indianapolis Center
10:28PM 38.0892 -82.6878 250° West 427 491 36,000  Level Indianapolis Center
10:29PM 38.0417 -82.8544 250° West 430 495 36,000  Level Indianapolis Center
10:30PM 38.0006 -82.9958 250° West 426 490 36,000  Level Indianapolis Center
10:31PM 37.9594 -83.1361 250° West 426 490 36,000  Level Indianapolis Center
10:32PM 37.9181 -83.2758 249° West 424 488 36,000  Level Indianapolis Center
10:33PM 37.8772 -83.4147 250° West 423 487 36,000  Level Indianapolis Center
10:34PM 37.8358 -83.5547 250° West 425 489 36,000  Level Indianapolis Center
10:35PM 37.7939 -83.6931 249° West 424 488 36,000  Level Indianapolis Center
10:36PM 37.7456 -83.8553 249° West 423 487 36,000  Level Indianapolis Center
10:37PM 37.7031 -83.9919 249° West 420 483 36,000  Level Indianapolis Center
10:38PM 37.6619 -84.1292 249° West 419 482 36,000  Level Indianapolis Center
10:39PM 37.6194 -84.2678 249° West 423 487 36,000  Level Indianapolis Center
10:40PM 37.5783 -84.4033 249° West 418 481 36,000  Level Indianapolis Center
10:41PM 37.5361 -84.5408 249° West 420 483 36,000  Level Indianapolis Center
10:42PM 37.4936 -84.6778 249° West 421 484 36,000  Level Indianapolis Center
10:43PM 37.4503 -84.8172 249° West 426 490 36,000  Level Indianapolis Center
10:44PM 37.3989 -84.9792 248° West 426 490 36,000  Level Indianapolis Center
10:45PM 37.3558 -85.1147 248° West 421 484 36,000  Level Indianapolis Center
10:46PM 37.3122 -85.2503 248° West 421 484 36,000  Level Indianapolis Center
10:47PM 37.2692 -85.3864 248° West 421 484 36,000  Level Indianapolis Center
10:48PM 37.2247 -85.5325 249° West 425 489 36,000  Level Indianapolis Center
10:49PM 37.1808 -85.6700 248° West 422 486 36,000  Level Indianapolis Center
10:50PM 37.1583 -85.7372 247° West 434 499 36,000  Level Memphis Center
10:51PM 37.1211 -85.8589 249° West 426 490 36,000  Level Memphis Center
10:52PM 37.0761 -85.9967 248° West 417 480 36,000  Level Memphis Center
10:53PM 37.0306 -86.1292 247° West 423 487 36,000  Level Memphis Center
10:54PM 36.9814 -86.2797 248° West 423 487 36,000  Level Memphis Center
10:55PM 36.9436 -86.3983 248° West 418 481 36,000  Level Memphis Center
10:56PM 36.8981 -86.5356 247° West 423 487 36,000  Level Memphis Center
10:57PM 36.8478 -86.6675 245° Southwest 423 487 36,000  Level Memphis Center
10:58PM 36.7997 -86.8047 246° West 428 493 36,000  Level Memphis Center
10:59PM 36.7494 -86.9414 245° Southwest 428 493 36,000  Level Memphis Center
11:00PM 36.7008 -87.0781 246° West 428 493 36,000  Level Memphis Center
11:01PM 36.6464 -87.2250 245° Southwest 428 493 36,000  Level Memphis Center
11:02PM 36.5956 -87.3642 246° West 428 493 36,000  Level Memphis Center
11:03PM 36.5467 -87.5003 246° West 433 498 36,000  Level Memphis Center
11:04PM 36.4975 -87.6311 245° Southwest 428 493 36,000  Level Memphis Center
11:05PM 36.4461 -87.7642 244° Southwest 428 493 36,000  Level Memphis Center
11:06PM 36.3989 -87.8922 245° Southwest 423 487 36,000  Level Memphis Center
11:07PM 36.3492 -88.0278 246° West 428 493 36,000  Level Memphis Center
11:08PM 36.3036 -88.1525 246° West 428 493 36,000  Level Memphis Center
11:09PM 36.2517 -88.2878 245° Southwest 423 487 36,000  Level Memphis Center
11:10PM 36.1997 -88.4178 244° Southwest 429 494 36,000  Level Memphis Center
11:11PM 36.1494 -88.5475 244° Southwest 424 488 36,000  Level Memphis Center
11:12PM 36.0972 -88.6794 244° Southwest 429 494 36,000  Level Memphis Center
11:13PM 36.0467 -88.8117 245° Southwest 429 494 36,000  Level Memphis Center
11:14PM 35.9942 -88.9408 243° Southwest 429 494 36,000  Level Memphis Center
11:15PM 35.9456 -89.0725 246° West 429 494 36,000  Level Memphis Center
11:16PM 35.8967 -89.2039 245° Southwest 429 494 36,000  Level Memphis Center
11:17PM 35.8542 -89.3350 248° West 423 487 36,000  Level Memphis Center
11:18PM 35.8092 -89.4689 248° West 418 481 36,000  Level Memphis Center
11:19PM 35.7664 -89.5947 247° West 418 481 36,000  Level Memphis Center
11:20PM 35.7233 -89.7281 248° West 418 481 36,000  Level Memphis Center
11:21PM 35.6864 -89.8536 250° West 413 475 36,000  Level Memphis Center
11:22PM 35.6431 -89.9814 247° West 404 465 36,000  Level Memphis Center
11:23PM 35.5994 -90.1069 247° West 404 465 36,000  Level Memphis Center
11:24PM 35.5539 -90.2369 247° West 410 472 36,000  Level Memphis Center
11:25PM 35.5100 -90.3647 247° West 415 478 36,000  Level Memphis Center
11:26PM 35.4661 -90.4897 247° West 415 478 36,000  Level Memphis Center
11:27PM 35.4222 -90.6219 248° West 415 478 36,000  Level Memphis Center
11:28PM 35.3761 -90.7492 246° West 415 478 36,000  Level Memphis Center
11:29PM 35.3297 -90.8761 246° West 415 478 36,000  Level Memphis Center
11:30PM 35.2853 -91.0058 247° West 415 478 36,000  Level Memphis Center
11:31PM 35.2428 -91.1197 245° Southwest 420 483 36,000  Level Memphis Center
11:32PM 35.1983 -91.2464 247° West 414 476 36,000 600 Level Memphis Center
11:33PM 35.1492 -91.3958 248° West 423 487 37,200 960 Climbing Memphis Center
11:34PM 35.1064 -91.5069 245° Southwest 423 487 38,000 360 Climbing Memphis Center
11:35PM 35.0614 -91.6331 246° West 418 481 38,000  Level Memphis Center
11:36PM 35.0142 -91.7592 245° Southwest 418 481 38,000  Level Memphis Center
11:37PM 34.9689 -91.8853 246° West 418 481 38,000  Level Memphis Center
11:38PM 34.9233 -92.0136 247° West 413 475 38,000  Level Memphis Center
11:39PM 34.8800 -92.1367 247° West 413 475 38,000  Level Memphis Center
11:40PM 34.8322 -92.2597 245° Southwest 413 475 38,000  Level Memphis Center
11:41PM 34.7864 -92.3850 246° West 413 475 38,000  Level Memphis Center
11:42PM 34.7386 -92.5103 245° Southwest 413 475 38,000  Level Memphis Center
11:43PM 34.6967 -92.6306 247° West 406 467 38,000  Level Memphis Center
11:44PM 34.6506 -92.7531 245° Southwest 406 467 38,000  Level Memphis Center
11:45PM 34.6064 -92.8753 246° West 400 460 38,000  Level Memphis Center
11:46PM 34.5600 -92.9975 245° Southwest 400 460 38,000  Level Memphis Center
11:47PM 34.5158 -93.1172 246° West 393 452 38,000  Level Memphis Center
11:48PM 34.4672 -93.2389 244° Southwest 398 458 38,000  Level Memphis Center
11:49PM 34.4225 -93.3583 246° West 398 458 38,000  Level Memphis Center
11:51PM 34.3344 -93.6008 246° West 396 456 38,000  Level Fort Worth Center
11:52PM 34.2881 -93.7236 245° Southwest 396 456 38,000  Level Fort Worth Center
11:53PM 34.2394 -93.8461 244° Southwest 401 461 38,000  Level Fort Worth Center
11:54PM 34.1928 -93.9686 245° Southwest 407 468 38,000  Level Fort Worth Center
11:55PM 34.1442 -94.0936 245° Southwest 407 468 38,000  Level Fort Worth Center
11:56PM 34.0972 -94.2158 245° Southwest 407 468 38,000  Level Fort Worth Center
11:57PM 34.0503 -94.3378 245° Southwest 407 468 38,000  Level Fort Worth Center
11:58PM 34.0008 -94.4597 244° Southwest 407 468 38,000  Level Fort Worth Center
11:59PM 33.9517 -94.5842 245° Southwest 407 468 38,000  Level Fort Worth Center
12:00AM 33.9042 -94.7058 245° Southwest 407 468 38,000  Level Fort Worth Center
12:01AM 33.8525 -94.8325 244° Southwest 407 468 38,000  Level Fort Worth Center
12:02AM 33.8031 -94.9564 244° Southwest 407 468 38,000  Level Fort Worth Center
12:03AM 33.7533 -95.0853 245° Southwest 412 474 38,000  Level Fort Worth Center
12:04AM 33.7011 -95.2114 244° Southwest 417 480 38,000  Level Fort Worth Center
12:05AM 33.6492 -95.3350 243° Southwest 417 480 38,000  Level Fort Worth Center
12:06AM 33.6386 -95.4725 265° West 407 468 38,000  Level Fort Worth Center
12:07AM 33.6617 -95.6042 282° West 407 468 38,000  Level Fort Worth Center
12:08AM 33.6844 -95.7408 281° West 407 468 38,000  Level Fort Worth Center
12:09AM 33.7028 -95.8781 279° West 412 474 38,000  Level Fort Worth Center
12:10AM 33.7272 -96.0100 283° West 412 474 38,000  Level Fort Worth Center
12:11AM 33.7475 -96.1444 280° West 412 474 38,000  Level Fort Worth Center
12:12AM 33.7675 -96.2742 281° West 412 474 38,000  Level Fort Worth Center
12:13AM 33.7853 -96.4039 279° West 412 474 38,000  Level Fort Worth Center
12:14AM 33.8031 -96.5336 279° West 407 468 38,000  Level Fort Worth Center
12:15AM 33.8247 -96.6633 281° West 402 463 38,000  Level Fort Worth Center
12:16AM 33.8358 -96.7908 276° West 397 457 38,000  Level Fort Worth Center
12:17AM 33.8572 -96.9158 282° West 391 450 38,000  Level Fort Worth Center
12:18AM 33.8744 -97.0408 279° West 391 450 38,000  Level Fort Worth Center
12:19AM 33.8914 -97.1633 279° West 386 444 38,000  Level Fort Worth Center
12:20AM 33.9083 -97.2883 279° West 386 444 38,000  Level Fort Worth Center
12:21AM 33.9250 -97.4108 279° West 381 438 38,000  Level Fort Worth Center
12:22AM 33.9458 -97.5311 282° West 375 432 38,000  Level Fort Worth Center
12:23AM 33.9622 -97.6564 279° West 375 432 38,000  Level Fort Worth Center
12:24AM 33.9789 -97.7642 281° West 374 430 38,000  Level Fort Worth Center
12:25AM 33.9950 -97.8894 279° West 374 430 38,000  Level Fort Worth Center
12:26AM 34.0133 -98.0222 279° West 374 430 38,000  Level Fort Worth Center
12:27AM 34.0292 -98.1478 279° West 374 430 38,000  Level Fort Worth Center
12:28AM 34.0453 -98.2683 279° West 374 430 38,000  Level Fort Worth Center
12:29AM 34.0589 -98.3811 278° West 378 435 38,000  Level Fort Worth Center
12:30AM 34.0767 -98.5167 279° West 378 435 38,000  Level Fort Worth Center
12:31AM 34.0903 -98.6322 278° West 384 442 38,000  Level Fort Worth Center
12:32AM 34.1075 -98.7706 279° West 384 442 38,000  Level Fort Worth Center
12:33AM 34.1208 -98.8911 278° West 384 442 38,000  Level Fort Worth Center
12:34AM 34.1381 -99.0169 279° West 384 442 38,000  Level Fort Worth Center
12:35AM 34.1553 -99.1353 280° West 373 429 38,000  Level Fort Worth Center
12:36AM 34.1703 -99.2533 279° West 368 423 38,000  Level Fort Worth Center
12:37AM 34.1831 -99.3767 277° West 368 423 38,000  Level Fort Worth Center
12:38AM 34.1975 -99.5000 278° West 373 429 38,000  Level Fort Worth Center
12:39AM 34.2122 -99.6211 278° West 373 429 38,000  Level Fort Worth Center
12:40AM 34.2286 -99.7469 279° West 368 423 38,000  Level Fort Worth Center
12:41AM 34.2431 -99.8681 278° West 368 423 38,000  Level Fort Worth Center
12:42AM 34.2572 -99.9892 278° West 368 423 38,000  Level Fort Worth Center
12:43AM 34.2714 -100.1150 278° West 374 430 38,000  Level Fort Worth Center
12:44AM 34.2833 -100.2361 277° West 369 425 38,000  Level Fort Worth Center
12:45AM 34.2992 -100.3572 279° West 369 425 38,000  Level Fort Worth Center
12:46AM 34.3111 -100.4783 277° West 369 425 38,000  Level Fort Worth Center
12:47AM 34.3244 -100.6072 277° West 374 430 38,000  Level Fort Worth Center
12:48AM 34.3400 -100.7283 279° West 374 430 38,000  Level Fort Worth Center
12:49AM 34.3556 -100.8547 279° West 374 430 38,000  Level Fort Worth Center
12:50AM 34.3664 -100.9836 276° West 374 430 38,000  Level Fort Worth Center
12:51AM 34.3794 -101.1100 277° West 385 443 38,000  Level Fort Worth Center
12:51AM 34.3881 -101.1872 278° West 387 445 38,000  Level Albuquerque Center
12:52AM 34.4019 -101.3164 277° West 387 445 38,000  Level Albuquerque Center
12:53AM 34.4147 -101.4453 277° West 386 444 38,000  Level Albuquerque Center
12:54AM 34.4281 -101.5717 277° West 382 440 38,000  Level Albuquerque Center
12:55AM 34.4403 -101.6983 277° West 379 436 38,000  Level Albuquerque Center
12:56AM 34.4536 -101.8247 277° West 378 435 38,000  Level Albuquerque Center
12:57AM 34.4656 -101.9486 277° West 371 427 38,000  Level Albuquerque Center
12:58AM 34.4786 -102.0728 277° West 371 427 38,000  Level Albuquerque Center
12:59AM 34.4906 -102.1981 277° West 372 428 38,000  Level Albuquerque Center
01:00AM 34.5033 -102.3233 277° West 373 429 38,000  Level Albuquerque Center
01:01AM 34.5142 -102.4481 276° West 372 428 38,000  Level Albuquerque Center
01:03AM 34.5267 -102.5731 277° West 373 429 38,000  Level Albuquerque Center
01:04AM 34.5400 -102.7172 276° West 370 426 38,000  Level Albuquerque Center
01:05AM 34.5533 -102.8417 277° West 369 425 38,000  Level Albuquerque Center
01:06AM 34.5628 -102.9669 275° West 370 426 38,000  Level Albuquerque Center
01:07AM 34.5747 -103.0931 277° West 371 427 38,000  Level Albuquerque Center
01:08AM 34.5856 -103.2200 276° West 374 430 38,000  Level Albuquerque Center
01:09AM 34.5947 -103.3261 276° West 375 432 38,000  Level Albuquerque Center
01:10AM 34.6067 -103.4542 277° West 377 434 38,000  Level Albuquerque Center
01:11AM 34.6178 -103.5828 276° West 378 435 38,000  Level Albuquerque Center
01:12AM 34.6281 -103.7114 276° West 379 436 38,000  Level Albuquerque Center
01:13AM 34.6392 -103.8394 276° West 378 435 38,000  Level Albuquerque Center
01:14AM 34.6497 -103.9681 276° West 378 435 38,000  Level Albuquerque Center
01:15AM 34.6594 -104.0956 275° West 376 433 38,000  Level Albuquerque Center
01:16AM 34.6703 -104.2222 276° West 374 430 38,000  Level Albuquerque Center
01:17AM 34.6797 -104.3497 275° West 374 430 38,000  Level Albuquerque Center
01:18AM 34.6900 -104.4778 276° West 375 432 38,000  Level Albuquerque Center
01:19AM 34.7003 -104.6064 276° West 379 436 38,000  Level Albuquerque Center
01:20AM 34.7114 -104.7358 276° West 381 438 38,000  Level Albuquerque Center
01:21AM 34.7203 -104.8661 275° West 382 440 38,000  Level Albuquerque Center
01:22AM 34.7306 -104.9983 275° West 387 445 38,000  Level Albuquerque Center
01:24AM 34.7506 -105.2644 275° West 392 451 38,000  Level Albuquerque Center
01:25AM 34.7606 -105.3972 275° West 392 451 38,000  Level Albuquerque Center
01:26AM 34.7689 -105.5300 274° West 391 450 38,000  Level Albuquerque Center
01:27AM 34.7783 -105.6631 275° West 392 451 38,000  Level Albuquerque Center
01:28AM 34.7867 -105.7969 274° West 393 452 38,000  Level Albuquerque Center
01:29AM 34.7972 -105.9300 276° West 392 451 38,000  Level Albuquerque Center
01:30AM 34.8036 -106.0642 273° West 393 452 38,000  Level Albuquerque Center
01:31AM 34.8133 -106.1983 275° West 394 453 38,000  Level Albuquerque Center
01:32AM 34.8211 -106.3344 274° West 394 453 38,000  Level Albuquerque Center
01:33AM 34.8219 -106.4656 270° West 389 448 38,000  Level Albuquerque Center
01:34AM 34.8178 -106.5994 268° West 391 450 38,000  Level Albuquerque Center
01:35AM 34.8161 -106.7358 269° West 396 456 38,000  Level Albuquerque Center
01:36AM 34.8136 -106.8733 269° West 400 460 38,000  Level Albuquerque Center
01:37AM 34.8092 -107.0114 268° West 404 465 38,000  Level Albuquerque Center
01:38AM 34.8064 -107.1461 269° West 399 459 38,000  Level Albuquerque Center
01:39AM 34.8025 -107.2822 268° West 399 459 38,000  Level Albuquerque Center
01:40AM 34.7992 -107.4167 268° West 398 458 38,000  Level Albuquerque Center
01:41AM 34.7956 -107.5503 268° West 396 456 38,000  Level Albuquerque Center
01:42AM 34.7911 -107.6836 268° West 395 455 38,000  Level Albuquerque Center
01:43AM 34.7881 -107.8183 268° West 397 457 38,000  Level Albuquerque Center
01:44AM 34.7836 -107.9525 268° West 397 457 38,000  Level Albuquerque Center
01:45AM 34.7797 -108.0881 268° West 399 459 38,000  Level Albuquerque Center
01:46AM 34.7750 -108.2236 268° West 401 461 38,000  Level Albuquerque Center
01:47AM 34.7694 -108.3600 267° West 402 463 38,000  Level Albuquerque Center
01:48AM 34.7656 -108.5019 268° West 405 466 38,000  Level Albuquerque Center
01:49AM 34.7614 -108.6325 268° West 405 466 38,000  Level Albuquerque Center
01:50AM 34.7556 -108.7853 267° West 404 465 38,000  Level Albuquerque Center
01:51AM 34.7494 -108.9172 267° West 406 467 38,000  Level Albuquerque Center
01:52AM 34.7447 -109.0494 268° West 407 468 38,000  Level Albuquerque Center
01:53AM 34.7403 -109.1794 268° West 404 465 38,000  Level Albuquerque Center
01:54AM 34.7089 -109.3275 256° West 401 461 38,000  Level Albuquerque Center
01:55AM 34.6628 -109.4475 245° Southwest 408 470 38,000  Level Albuquerque Center
01:56AM 34.6169 -109.5622 244° Southwest 401 461 38,000  Level Albuquerque Center
01:57AM 34.5631 -109.7003 245° Southwest 403 464 38,000  Level Albuquerque Center
01:58AM 34.5172 -109.8197 245° Southwest 406 467 38,000  Level Albuquerque Center
01:59AM 34.4700 -109.9375 244° Southwest 406 467 38,000  Level Albuquerque Center
02:00AM 34.4247 -110.0564 245° Southwest 405 466 38,000 -1,200 Level Albuquerque Center
02:01AM 34.3700 -110.1911 244° Southwest 402 463 35,600 -2,580 Descending Albuquerque Center
02:02AM 34.3244 -110.3081 245° Southwest 400 460 32,800 -2,700 Descending Albuquerque Center
02:03AM 34.2794 -110.4253 245° Southwest 414 476 30,200 -2,520 Descending Albuquerque Center
02:04AM 34.2239 -110.5550 243° Southwest 423 487 27,800 -2,340 Descending Albuquerque Center
02:05AM 34.1778 -110.6733 245° Southwest 403 464 25,600 -2,220 Descending Albuquerque Center
02:06AM 34.1333 -110.7850 244° Southwest 389 448 23,400 -2,160 Descending Albuquerque Center
02:07AM 34.0869 -110.8969 243° Southwest 377 434 21,300 -2,160 Descending Albuquerque Center
02:08AM 34.0444 -111.0072 245° Southwest 371 427 19,100 -2,100 Descending Albuquerque Center
02:09AM 34.0003 -111.1119 243° Southwest 358 412 17,100 -2,040 Descending Albuquerque Center
02:10AM 33.9600 -111.2139 245° Southwest 343 395 15,000 -1,800 Descending Albuquerque Center
02:11AM 33.9189 -111.3142 244° Southwest 335 386 13,500 -1,440 Descending Albuquerque Center
02:12AM 33.8736 -111.4103 240° Southwest 332 382 12,200 -1,380 Descending Albuquerque Center
02:13AM 33.8003 -111.4747 216° Southwest 325 374 10,800 -1,200 Descending Albuquerque Center
02:14AM 33.7300 -111.5356 216° Southwest 315 362 9,900 -1,020 Descending Albuquerque Center
02:15AM 33.6642 -111.5914 215° Southwest 296 341 8,800 -1,200 Descending Albuquerque Center
02:16AM 33.6014 -111.6447 215° Southwest 280 322 7,600 -960 Descending Albuquerque Center
02:17AM 33.5431 -111.6936 215° Southwest 262 302 6,900 -900 Descending Albuquerque Center
02:18AM 33.4917 -111.7369 215° Southwest 235 270 5,900 -960 Descending Albuquerque Center
02:19AM 33.4439 -111.7836 219° Southwest 223 257 5,000 -1,140 Descending Albuquerque Center
02:20AM 33.4339 -111.8475 259° West 202 232 3,700 -1,200 Descending Albuquerque Center
02:21AM 33.4308 -111.9061 266° West 190 219 2,600 -960 Descending Albuquerque Center
02:22AM 33.4325 -111.9522 272° West 166 191 1,800 -660 Descending Albuquerque Center
02:23AM 33.4325 -112.0050 270° West 154 177 1,300 -540 Descending Albuquerque Center
02:25AM 33.4333 -112.0000 90° East  Level FlightAware Approximate